Time;durP1;ratioP1;P1;durP2;ratioP2;P2;SDS_P1;SDS_P2;PMS_P1;PMS_P2;Temp;Humidity;BMP_temperature;BMP_pressure;BME280_temperature;BME280_humidity;BME280_pressure;Samples;Min_cycle;Max_cycle;Signal;HPM_P1;HPM_P2
2022/08/06 05:49:29;;;;;;;4.80;2.80;;;;;;;;;;5091124;23;20033;-75
2022/08/06 05:51:58;;;;;;;4.17;3.00;;;;;;;;;;4896142;29;20060;-82
2022/08/06 05:54:27;;;;;;;4.43;2.90;;;;;;;;;;4901371;29;20269;-76
2022/08/06 05:56:59;;;;;;;4.32;2.53;;;;;;;;;;4900408;29;20033;-80
2022/08/06 05:59:27;;;;;;;5.63;2.90;;;;;;;;;;4884049;29;20489;-80
2022/08/06 06:01:55;;;;;;;2.85;1.77;;;;;;;;;;4901043;29;20505;-86
2022/08/06 06:04:22;;;;;;;8.00;3.00;;;;;;;;;;4901555;29;20387;-80
2022/08/06 06:06:48;;;;;;;4.53;2.25;;;;;;;;;;4884228;29;20044;-79
2022/08/06 06:09:15;;;;;;;3.70;1.98;;;;;;;;;;4884217;29;20040;-80
2022/08/06 06:11:41;;;;;;;8.40;2.17;;;;;;;;;;4883992;29;20088;-79
2022/08/06 06:14:25;;;;;;;2.70;1.70;;;;;;;;;;4884236;29;20397;-79
2022/08/06 06:17:02;;;;;;;4.22;2.10;;;;;;;;;;4884258;29;20029;-80
2022/08/06 06:19:50;;;;;;;3.90;1.95;;;;;;;;;;4883986;29;20025;-80
2022/08/06 06:22:25;;;;;;;3.92;2.25;;;;;;;;;;4901225;29;20032;-80
2022/08/06 06:24:54;;;;;;;7.38;2.15;;;;;;;;;;4884063;29;20081;-86
2022/08/06 06:27:25;;;;;;;4.18;2.05;;;;;;;;;;4883280;29;20045;-81
2022/08/06 06:30:11;;;;;;;3.25;2.00;;;;;;;;;;4883860;29;20025;-80
2022/08/06 06:32:38;;;;;;;5.80;2.05;;;;;;;;;;4883702;29;20053;-79
2022/08/06 06:35:11;;;;;;;3.55;2.00;;;;;;;;;;4884064;29;20081;-77
2022/08/06 06:37:42;;;;;;;3.85;2.20;;;;;;;;;;4884241;29;20048;-79
2022/08/06 06:40:08;;;;;;;3.85;2.22;;;;;;;;;;4883781;29;20032;-82
2022/08/06 06:42:48;;;;;;;3.22;2.17;;;;;;;;;;4883753;29;20037;-82
2022/08/06 06:45:17;;;;;;;3.45;1.90;;;;;;;;;;4883567;29;20039;-80
2022/08/06 06:47:59;;;;;;;3.58;2.15;;;;;;;;;;4883619;29;20537;-81
2022/08/06 06:50:30;;;;;;;4.15;2.30;;;;;;;;;;4883297;29;20059;-80
2022/08/06 06:52:57;;;;;;;4.57;2.55;;;;;;;;;;4899241;29;20500;-81
2022/08/06 06:55:24;;;;;;;3.97;2.20;;;;;;;;;;4899272;29;20393;-90
2022/08/06 06:57:52;;;;;;;3.85;2.10;;;;;;;;;;4898693;29;20032;-78
2022/08/06 07:00:18;;;;;;;5.53;2.65;;;;;;;;;;4898540;29;20032;-77
2022/08/06 07:02:48;;;;;;;5.25;2.85;;;;;;;;;;4900378;29;20037;-81
2022/08/06 07:05:14;;;;;;;3.88;2.78;;;;;;;;;;4899040;29;20031;-76
2022/08/06 07:07:42;;;;;;;5.57;2.35;;;;;;;;;;4898580;29;20123;-81
2022/08/06 07:10:09;;;;;;;3.92;2.58;;;;;;;;;;4899799;29;20037;-80
2022/08/06 07:12:36;;;;;;;4.95;2.70;;;;;;;;;;4898692;29;20588;-80
2022/08/06 07:15:04;;;;;;;4.85;2.63;;;;;;;;;;4899140;29;20035;-86
2022/08/06 07:17:31;;;;;;;4.32;2.65;;;;;;;;;;4900349;29;20028;-80
2022/08/06 07:20:01;;;;;;;3.88;2.70;;;;;;;;;;4898799;29;20025;-87
2022/08/06 07:22:27;;;;;;;5.10;2.45;;;;;;;;;;4899285;29;20032;-86
2022/08/06 07:25:01;;;;;;;5.90;3.05;;;;;;;;;;4898843;29;20390;-86
2022/08/06 07:27:29;;;;;;;5.80;2.70;;;;;;;;;;4900681;29;20041;-86
2022/08/06 07:29:56;;;;;;;3.22;2.10;;;;;;;;;;4900046;29;20516;-86
2022/08/06 07:32:22;;;;;;;4.13;2.20;;;;;;;;;;4900073;29;20029;-87
2022/08/06 07:34:49;;;;;;;2.88;1.83;;;;;;;;;;4898507;29;20466;-79
2022/08/06 07:37:17;;;;;;;3.45;1.70;;;;;;;;;;4899593;29;20031;-79
2022/08/06 07:39:44;;;;;;;4.63;1.98;;;;;;;;;;4898474;29;20043;-87
2022/08/06 07:42:12;;;;;;;2.78;1.60;;;;;;;;;;4898682;29;20025;-80
2022/08/06 07:44:42;;;;;;;2.35;1.50;;;;;;;;;;4898614;29;20025;-88
2022/08/06 07:47:09;;;;;;;4.22;1.65;;;;;;;;;;4897722;29;20044;-87
2022/08/06 07:49:37;;;;;;;3.80;1.92;;;;;;;;;;4899311;29;20032;-80
2022/08/06 07:52:05;;;;;;;4.78;1.40;;;;;;;;;;4882678;29;20033;-79
2022/08/06 07:54:33;;;;;;;2.53;1.60;;;;;;;;;;4882598;29;20037;-79
2022/08/06 07:56:59;;;;;;;2.30;1.60;;;;;;;;;;4882472;29;20029;-80
2022/08/06 07:59:26;;;;;;;2.90;1.48;;;;;;;;;;4899622;29;20074;-80
2022/08/06 08:01:52;;;;;;;3.50;2.03;;;;;;;;;;4882477;29;20032;-79
2022/08/06 08:07:05;;;;;;;4.15;1.42;;;;;;;;;;4899989;29;20093;-86
2022/08/06 08:09:32;;;;;;;3.85;1.30;;;;;;;;;;4882564;29;20060;-80
2022/08/06 08:11:58;;;;;;;3.92;1.40;;;;;;;;;;4882119;29;20021;-86
2022/08/06 08:14:25;;;;;;;1.70;1.00;;;;;;;;;;4882186;29;20438;-80
2022/08/06 08:16:51;;;;;;;1.92;1.00;;;;;;;;;;4882253;29;20020;-86
2022/08/06 08:19:44;;;;;;;1.52;0.90;;;;;;;;;;4882473;29;20036;-80
2022/08/06 08:22:15;;;;;;;1.58;0.70;;;;;;;;;;4879782;29;20032;-86
2022/08/06 08:24:43;;;;;;;2.15;0.90;;;;;;;;;;4899067;29;20032;-86
2022/08/06 08:27:10;;;;;;;1.45;0.70;;;;;;;;;;4881924;29;20123;-80
2022/08/06 08:29:37;;;;;;;2.50;0.80;;;;;;;;;;4881997;29;20049;-81
2022/08/06 08:32:04;;;;;;;2.00;1.00;;;;;;;;;;4898655;29;20028;-79
2022/08/06 08:34:30;;;;;;;2.67;1.00;;;;;;;;;;4898650;29;20060;-85
2022/08/06 08:36:57;;;;;;;7.95;1.00;;;;;;;;;;4882037;29;20039;-81
2022/08/06 08:39:23;;;;;;;3.00;0.63;;;;;;;;;;4898524;29;20036;-80
2022/08/06 08:41:51;;;;;;;3.08;0.80;;;;;;;;;;4881692;29;20477;-87
2022/08/06 08:44:24;;;;;;;2.05;0.80;;;;;;;;;;4881829;29;20060;-85
2022/08/06 08:46:51;;;;;;;2.13;0.80;;;;;;;;;;4881950;29;20085;-85
2022/08/06 08:49:24;;;;;;;1.58;0.80;;;;;;;;;;4898661;29;20447;-80
2022/08/06 08:51:51;;;;;;;1.15;0.70;;;;;;;;;;4863249;29;20049;-86
2022/08/06 08:54:21;;;;;;;1.83;0.90;;;;;;;;;;4863042;29;20033;-87
2022/08/06 08:56:48;;;;;;;1.73;0.77;;;;;;;;;;4863217;29;20060;-85
2022/08/06 08:59:15;;;;;;;3.15;0.70;;;;;;;;;;4878977;29;20052;-79
2022/08/06 09:01:42;;;;;;;3.63;1.00;;;;;;;;;;4863012;29;20111;-79
2022/08/06 09:04:08;;;;;;;2.38;1.05;;;;;;;;;;4863156;29;20029;-79
2022/08/06 09:06:36;;;;;;;1.98;0.98;;;;;;;;;;4863163;29;20141;-86
2022/08/06 09:09:03;;;;;;;1.58;0.80;;;;;;;;;;4862908;29;20037;-79
2022/08/06 09:11:30;;;;;;;1.60;0.80;;;;;;;;;;4863269;29;20021;-87
2022/08/06 09:13:59;;;;;;;1.45;0.90;;;;;;;;;;4862978;29;20068;-85
2022/08/06 09:16:25;;;;;;;2.92;1.00;;;;;;;;;;4862898;29;20028;-79
2022/08/06 09:18:52;;;;;;;1.60;1.00;;;;;;;;;;4863020;29;20033;-79
2022/08/06 09:21:18;;;;;;;2.85;1.25;;;;;;;;;;4862996;29;20033;-86
2022/08/06 09:23:44;;;;;;;1.88;1.05;;;;;;;;;;4862820;29;20120;-86
2022/08/06 09:26:10;;;;;;;2.88;1.45;;;;;;;;;;4863011;29;20580;-81
2022/08/06 09:28:38;;;;;;;2.03;1.05;;;;;;;;;;4879919;29;20070;-79
2022/08/06 09:31:06;;;;;;;4.47;1.30;;;;;;;;;;4863103;29;20033;-80
2022/08/06 09:33:33;;;;;;;1.73;0.93;;;;;;;;;;4862953;29;20521;-79
2022/08/06 09:36:07;;;;;;;1.95;1.13;;;;;;;;;;4863009;29;20033;-79
2022/08/06 09:38:46;;;;;;;3.00;1.38;;;;;;;;;;4879611;29;20037;-86
2022/08/06 09:41:12;;;;;;;2.58;1.38;;;;;;;;;;4862999;29;20025;-79
2022/08/06 09:43:39;;;;;;;1.90;1.10;;;;;;;;;;4879588;29;20157;-84
2022/08/06 09:46:06;;;;;;;2.20;1.30;;;;;;;;;;4879319;29;20029;-85
2022/08/06 09:48:33;;;;;;;1.55;1.05;;;;;;;;;;4862898;29;20044;-79
2022/08/06 09:50:59;;;;;;;2.40;1.15;;;;;;;;;;4891760;29;20112;-79
2022/08/06 09:53:25;;;;;;;2.05;1.30;;;;;;;;;;4881971;29;20058;-86
2022/08/06 09:55:52;;;;;;;2.63;1.13;;;;;;;;;;4881441;29;20521;-86
2022/08/06 09:58:29;;;;;;;1.58;0.98;;;;;;;;;;4881476;29;20061;-86
2022/08/06 10:00:55;;;;;;;1.77;1.00;;;;;;;;;;4881591;29;20032;-87
2022/08/06 10:03:21;;;;;;;1.60;0.98;;;;;;;;;;4881706;29;20096;-85
2022/08/06 10:06:02;;;;;;;2.00;1.10;;;;;;;;;;4881451;29;20029;-85
2022/08/06 10:08:28;;;;;;;2.65;1.15;;;;;;;;;;4898057;29;20044;-85
2022/08/06 10:10:55;;;;;;;1.67;0.90;;;;;;;;;;4884316;29;20545;-87
2022/08/06 10:13:26;;;;;;;1.75;0.95;;;;;;;;;;4884715;29;20085;-79
2022/08/06 10:15:53;;;;;;;1.92;1.10;;;;;;;;;;4884921;29;20033;-87
2022/08/06 10:18:49;;;;;;;1.77;0.95;;;;;;;;;;4884669;29;20209;-79
2022/08/06 10:21:22;;;;;;;3.55;1.10;;;;;;;;;;4872584;29;20040;-85
2022/08/06 10:23:49;;;;;;;3.45;1.20;;;;;;;;;;4884612;29;20530;-85
2022/08/06 10:26:20;;;;;;;4.20;1.33;;;;;;;;;;4884331;29;20068;-86
2022/08/06 10:28:47;;;;;;;1.95;1.10;;;;;;;;;;4901265;29;20561;-79
2022/08/06 10:31:14;;;;;;;1.45;0.90;;;;;;;;;;4884203;29;20028;-79
2022/08/06 10:33:41;;;;;;;2.17;0.82;;;;;;;;;;4884284;29;20037;-86
2022/08/06 10:36:12;;;;;;;2.35;0.70;;;;;;;;;;4884075;29;20029;-79
2022/08/06 10:38:41;;;;;;;1.75;0.70;;;;;;;;;;4884223;29;20039;-80
2022/08/06 10:41:10;;;;;;;1.65;0.70;;;;;;;;;;4884068;29;20031;-84
2022/08/06 10:43:37;;;;;;;1.42;0.63;;;;;;;;;;4883939;29;20035;-79
2022/08/06 10:46:15;;;;;;;1.30;0.55;;;;;;;;;;4883820;29;20025;-78
2022/08/06 10:48:42;;;;;;;1.13;0.63;;;;;;;;;;4884256;29;20550;-87
2022/08/06 10:51:09;;;;;;;0.88;0.30;;;;;;;;;;4883791;29;20053;-81
2022/08/06 10:53:37;;;;;;;1.40;0.55;;;;;;;;;;4899659;29;20482;-79
2022/08/06 10:56:04;;;;;;;1.55;0.57;;;;;;;;;;4899277;29;20021;-85
2022/08/06 10:58:31;;;;;;;1.98;0.52;;;;;;;;;;4900513;29;20028;-80
2022/08/06 11:01:02;;;;;;;1.00;0.60;;;;;;;;;;4899246;29;20107;-79
2022/08/06 11:03:35;;;;;;;1.15;0.43;;;;;;;;;;4899262;29;20036;-79
2022/08/06 11:06:11;;;;;;;0.68;0.30;;;;;;;;;;4900110;29;20029;-79
2022/08/06 11:08:51;;;;;;;2.38;0.35;;;;;;;;;;4900156;29;20033;-79
2022/08/06 11:11:17;;;;;;;2.03;0.50;;;;;;;;;;4899195;29;20024;-80
2022/08/06 11:14:15;;;;;;;1.42;0.30;;;;;;;;;;4899090;29;20040;-86
2022/08/06 11:16:41;;;;;;;0.65;0.30;;;;;;;;;;4853576;29;20044;-86
2022/08/06 11:19:08;;;;;;;0.95;0.32;;;;;;;;;;4899088;29;20024;-88
2022/08/06 11:21:47;;;;;;;0.88;0.43;;;;;;;;;;4898466;29;20029;-87
2022/08/06 11:24:15;;;;;;;0.90;0.30;;;;;;;;;;4898950;29;20071;-86
2022/08/06 11:26:42;;;;;;;1.02;0.35;;;;;;;;;;4900858;29;20033;-79
2022/08/06 11:29:09;;;;;;;0.43;0.25;;;;;;;;;;4898859;29;20044;-85
2022/08/06 11:31:38;;;;;;;1.00;0.40;;;;;;;;;;4898853;29;20045;-79
2022/08/06 11:34:06;;;;;;;1.20;0.40;;;;;;;;;;4900082;29;20032;-84
2022/08/06 11:36:47;;;;;;;0.80;0.32;;;;;;;;;;4898850;29;20044;-86
2022/08/06 11:39:14;;;;;;;2.88;0.73;;;;;;;;;;4898826;29;20024;-86
2022/08/06 11:41:45;;;;;;;1.67;0.30;;;;;;;;;;4900386;29;20112;-88
2022/08/06 11:44:15;;;;;;;1.00;0.40;;;;;;;;;;4898841;29;20083;-85
2022/08/06 11:46:45;;;;;;;0.85;0.40;;;;;;;;;;4898619;29;20115;-78
2022/08/06 11:49:18;;;;;;;0.50;0.20;;;;;;;;;;4898537;29;20040;-79
2022/08/06 11:51:45;;;;;;;0.28;0.10;;;;;;;;;;4899973;29;20433;-86
2022/08/06 11:54:20;;;;;;;1.08;0.28;;;;;;;;;;4899780;29;20064;-79
2022/08/06 11:57:02;;;;;;;0.77;0.38;;;;;;;;;;4898386;29;20021;-79
2022/08/06 11:59:28;;;;;;;1.90;0.20;;;;;;;;;;4898505;29;20564;-83
2022/08/06 12:01:54;;;;;;;0.77;0.30;;;;;;;;;;4899672;29;20032;-86
2022/08/06 12:04:32;;;;;;;0.90;0.30;;;;;;;;;;4898659;29;20029;-85
2022/08/06 12:07:14;;;;;;;0.60;0.30;;;;;;;;;;4900113;29;20065;-86
2022/08/06 12:09:40;;;;;;;0.55;0.10;;;;;;;;;;4898200;29;20032;-85
2022/08/06 12:12:25;;;;;;;2.35;0.40;;;;;;;;;;4900332;29;20034;-86
2022/08/06 12:14:55;;;;;;;3.10;0.30;;;;;;;;;;4898300;29;20044;-87
2022/08/06 12:17:25;;;;;;;0.65;0.20;;;;;;;;;;4898238;29;20497;-86
2022/08/06 12:19:52;;;;;;;0.55;0.20;;;;;;;;;;4898294;29;20501;-84
2022/08/06 12:22:20;;;;;;;0.40;0.20;;;;;;;;;;4899466;29;20036;-86
2022/08/06 12:24:49;;;;;;;1.05;0.30;;;;;;;;;;4898081;29;20035;-85
2022/08/06 12:27:16;;;;;;;0.50;0.20;;;;;;;;;;4898946;29;20485;-86
2022/08/06 12:29:43;;;;;;;0.80;0.20;;;;;;;;;;4898047;29;20029;-79
2022/08/06 12:32:22;;;;;;;0.50;0.20;;;;;;;;;;4899200;29;20032;-86
2022/08/06 12:34:49;;;;;;;0.68;0.30;;;;;;;;;;4898215;29;20489;-79
2022/08/06 12:37:19;;;;;;;1.15;0.20;;;;;;;;;;4897933;29;20063;-85
2022/08/06 12:42:31;;;;;;;0.38;0.13;;;;;;;;;;4899224;29;20103;-86
2022/08/06 12:44:57;;;;;;;1.02;0.40;;;;;;;;;;4897857;29;20402;-85
2022/08/06 12:47:25;;;;;;;1.10;0.30;;;;;;;;;;4898914;29;20029;-79
2022/08/06 12:49:52;;;;;;;0.85;0.40;;;;;;;;;;4895062;29;20482;-84
2022/08/06 12:52:22;;;;;;;0.70;0.40;;;;;;;;;;4863386;29;20036;-79
2022/08/06 12:54:51;;;;;;;0.40;0.10;;;;;;;;;;4863765;29;20100;-86
2022/08/06 12:57:24;;;;;;;1.70;0.30;;;;;;;;;;4882050;29;20033;-83
2022/08/06 12:59:53;;;;;;;0.70;0.20;;;;;;;;;;4879549;29;20053;-82
2022/08/06 13:02:22;;;;;;;1.17;0.40;;;;;;;;;;4863366;29;20037;-83
2022/08/06 13:04:51;;;;;;;1.17;0.30;;;;;;;;;;4880022;29;20499;-80
2022/08/06 13:07:18;;;;;;;1.08;0.57;;;;;;;;;;4862866;29;20089;-80
2022/08/06 13:09:46;;;;;;;0.77;0.28;;;;;;;;;;4863282;29;20033;-87
2022/08/06 13:12:17;;;;;;;0.55;0.30;;;;;;;;;;4862997;29;20033;-78
2022/08/06 13:14:50;;;;;;;1.15;0.50;;;;;;;;;;4863425;29;20044;-92
2022/08/06 13:17:16;;;;;;;0.80;0.32;;;;;;;;;;4880702;29;20028;-82
2022/08/06 13:19:58;;;;;;;0.90;0.50;;;;;;;;;;4863208;29;20592;-80
2022/08/06 13:22:25;;;;;;;0.88;0.40;;;;;;;;;;4863012;29;20123;-87
2022/08/06 13:25:10;;;;;;;0.80;0.38;;;;;;;;;;4862922;29;20029;-82
2022/08/06 13:27:36;;;;;;;3.00;0.45;;;;;;;;;;4862802;29;20044;-79
2022/08/06 13:30:05;;;;;;;2.28;0.40;;;;;;;;;;4863021;29;20055;-80
2022/08/06 13:32:31;;;;;;;1.30;0.50;;;;;;;;;;4862837;29;20443;-82
2022/08/06 13:34:58;;;;;;;0.90;0.40;;;;;;;;;;4863174;29;20051;-85
2022/08/06 13:37:43;;;;;;;0.80;0.32;;;;;;;;;;4880278;29;20033;-91
2022/08/06 13:40:10;;;;;;;5.05;0.47;;;;;;;;;;4864125;29;20025;-81
2022/08/06 13:42:49;;;;;;;0.75;0.35;;;;;;;;;;4862634;29;20081;-82
2022/08/06 13:45:19;;;;;;;3.38;0.50;;;;;;;;;;4881408;29;20037;-80
2022/08/06 13:47:49;;;;;;;0.70;0.30;;;;;;;;;;4866267;29;20131;-80
2022/08/06 13:50:15;;;;;;;1.08;0.43;;;;;;;;;;4872895;29;20168;-82
2022/08/06 13:52:41;;;;;;;1.92;0.70;;;;;;;;;;4901922;29;20564;-81
2022/08/06 13:55:08;;;;;;;0.68;0.30;;;;;;;;;;4900312;29;20028;-80
2022/08/06 13:57:35;;;;;;;1.73;0.57;;;;;;;;;;4900550;29;20502;-80
2022/08/06 14:00:02;;;;;;;0.77;0.40;;;;;;;;;;4900678;29;20083;-83
2022/08/06 14:02:28;;;;;;;0.80;0.38;;;;;;;;;;4901690;29;20032;-84
2022/08/06 14:04:54;;;;;;;0.85;0.47;;;;;;;;;;4901015;29;20033;-85
2022/08/06 14:07:20;;;;;;;1.75;0.70;;;;;;;;;;4900337;29;20494;-84
2022/08/06 14:09:47;;;;;;;1.00;0.40;;;;;;;;;;4901374;29;20474;-84
2022/08/06 14:12:13;;;;;;;1.23;0.47;;;;;;;;;;4900103;29;20545;-86
2022/08/06 14:14:39;;;;;;;0.73;0.40;;;;;;;;;;4900010;29;20032;-79
2022/08/06 14:17:05;;;;;;;0.95;0.40;;;;;;;;;;4899924;29;20402;-79
2022/08/06 14:19:31;;;;;;;0.90;0.40;;;;;;;;;;4899890;29;20032;-79
2022/08/06 14:21:58;;;;;;;0.98;0.50;;;;;;;;;;4899871;29;20029;-83
2022/08/06 14:24:24;;;;;;;0.95;0.47;;;;;;;;;;4901272;29;20116;-80
2022/08/06 14:26:50;;;;;;;3.17;0.77;;;;;;;;;;4899839;29;20051;-79
2022/08/06 14:29:16;;;;;;;1.77;0.50;;;;;;;;;;4898700;29;20081;-79
2022/08/06 14:31:43;;;;;;;2.15;0.70;;;;;;;;;;4892667;29;20027;-77
2022/08/06 14:34:09;;;;;;;3.83;0.55;;;;;;;;;;4889583;29;20065;-82
2022/08/06 14:36:37;;;;;;;1.63;0.63;;;;;;;;;;4882549;29;20033;-75
2022/08/06 14:39:03;;;;;;;0.90;0.40;;;;;;;;;;4897954;29;20027;-75
2022/08/06 14:46:59;;;;;;;2.00;0.50;;;;;;;;;;4889662;29;20044;-80
2022/08/06 14:49:25;;;;;;;5.07;0.52;;;;;;;;;;4880346;29;20047;-79
2022/08/06 14:51:51;;;;;;;1.05;0.50;;;;;;;;;;4881744;29;20033;-78
2022/08/06 14:54:17;;;;;;;2.95;0.60;;;;;;;;;;4881849;29;20525;-76
2022/08/06 14:56:45;;;;;;;1.10;0.57;;;;;;;;;;4881705;29;20112;-76
2022/08/06 14:59:11;;;;;;;3.67;0.57;;;;;;;;;;4881521;29;20025;-76
2022/08/06 15:01:37;;;;;;;2.90;0.60;;;;;;;;;;4864779;29;20483;-75
2022/08/06 15:04:04;;;;;;;2.83;0.70;;;;;;;;;;4892896;29;20042;-75
2022/08/06 15:06:30;;;;;;;2.15;0.70;;;;;;;;;;4900110;29;20474;-77
2022/08/06 15:08:56;;;;;;;0.85;0.50;;;;;;;;;;4900636;29;20141;-75
2022/08/06 15:11:22;;;;;;;1.58;0.60;;;;;;;;;;4900346;29;20500;-83
2022/08/06 15:13:48;;;;;;;1.23;0.50;;;;;;;;;;4883325;29;20398;-85
2022/08/06 15:16:14;;;;;;;1.00;0.55;;;;;;;;;;4883440;29;20029;-82
2022/08/06 15:18:42;;;;;;;1.27;0.50;;;;;;;;;;4883203;29;20119;-82
2022/08/06 15:21:08;;;;;;;4.10;1.08;;;;;;;;;;4883777;29;20457;-80
2022/08/06 15:23:35;;;;;;;4.75;0.70;;;;;;;;;;4883184;29;20032;-80
2022/08/06 15:26:01;;;;;;;1.33;0.70;;;;;;;;;;4900400;29;20052;-79
2022/08/06 15:28:27;;;;;;;1.50;0.65;;;;;;;;;;4899941;29;20070;-82
2022/08/06 15:30:53;;;;;;;4.55;0.70;;;;;;;;;;4883031;29;20504;-79
2022/08/06 15:33:19;;;;;;;1.42;0.63;;;;;;;;;;4899792;29;20029;-77
2022/08/06 15:35:46;;;;;;;4.22;0.75;;;;;;;;;;4883002;29;20028;-78
2022/08/06 15:38:12;;;;;;;1.40;0.70;;;;;;;;;;4899633;29;20060;-80
2022/08/06 15:40:39;;;;;;;2.17;0.52;;;;;;;;;;4899707;29;20028;-80
2022/08/06 15:43:05;;;;;;;1.45;0.63;;;;;;;;;;4882873;29;20596;-82
2022/08/06 15:45:31;;;;;;;1.80;0.82;;;;;;;;;;4882829;29;20063;-80
2022/08/06 15:47:58;;;;;;;1.30;0.80;;;;;;;;;;4900049;29;20037;-74
2022/08/06 15:50:24;;;;;;;1.23;0.68;;;;;;;;;;4879113;29;20056;-78
2022/08/06 15:52:50;;;;;;;1.77;0.73;;;;;;;;;;4879401;29;20383;-76
2022/08/06 15:55:17;;;;;;;1.48;0.80;;;;;;;;;;4879397;29;20123;-76
2022/08/06 15:57:44;;;;;;;1.58;0.75;;;;;;;;;;4879333;29;20129;-76
2022/08/06 16:00:10;;;;;;;1.20;0.70;;;;;;;;;;4880592;29;20029;-77
2022/08/06 16:02:37;;;;;;;4.50;0.80;;;;;;;;;;4880817;29;20244;-77
2022/08/06 16:05:04;;;;;;;2.28;0.98;;;;;;;;;;4880496;29;20036;-80
2022/08/06 16:07:30;;;;;;;1.17;0.60;;;;;;;;;;4878581;29;20041;-77
2022/08/06 16:09:56;;;;;;;2.20;0.80;;;;;;;;;;4882176;29;20024;-81
2022/08/06 16:12:23;;;;;;;1.85;0.80;;;;;;;;;;4882461;29;20048;-83
2022/08/06 16:14:49;;;;;;;3.92;0.88;;;;;;;;;;4882755;29;20048;-78
2022/08/06 16:17:15;;;;;;;4.15;1.30;;;;;;;;;;4881914;29;20529;-78
2022/08/06 16:19:41;;;;;;;2.22;0.80;;;;;;;;;;4878741;29;20033;-78
2022/08/06 16:22:07;;;;;;;1.70;0.90;;;;;;;;;;4880389;29;20033;-80
2022/08/06 16:24:35;;;;;;;2.40;0.80;;;;;;;;;;4882563;29;20064;-85
2022/08/06 16:27:03;;;;;;;2.20;0.80;;;;;;;;;;4899287;29;20025;-83
2022/08/06 16:29:34;;;;;;;1.67;0.80;;;;;;;;;;4898963;29;20020;-82
2022/08/06 16:32:02;;;;;;;2.75;0.90;;;;;;;;;;4882090;29;20490;-79
2022/08/06 16:34:29;;;;;;;2.30;1.00;;;;;;;;;;4881897;29;20072;-75
2022/08/06 16:36:55;;;;;;;2.25;1.10;;;;;;;;;;4881551;29;20040;-74
2022/08/06 16:39:21;;;;;;;5.20;0.90;;;;;;;;;;4898660;29;20028;-80
2022/08/06 16:41:47;;;;;;;1.98;1.15;;;;;;;;;;4882670;29;20509;-85
2022/08/06 16:44:13;;;;;;;2.38;1.20;;;;;;;;;;4881655;29;20033;-82
2022/08/06 16:46:39;;;;;;;5.28;1.13;;;;;;;;;;4881748;29;20120;-81
2022/08/06 16:49:05;;;;;;;2.42;1.40;;;;;;;;;;4881599;29;20052;-77
2022/08/06 16:51:32;;;;;;;3.65;1.17;;;;;;;;;;4898335;29;20052;-73
2022/08/06 16:53:58;;;;;;;3.47;1.30;;;;;;;;;;4882053;29;20083;-75
2022/08/06 16:56:24;;;;;;;2.55;1.10;;;;;;;;;;4881895;29;20032;-74
2022/08/06 16:58:51;;;;;;;2.30;1.15;;;;;;;;;;4881323;29;20120;-84
2022/08/06 17:01:17;;;;;;;1.90;1.00;;;;;;;;;;4898462;29;20104;-75
2022/08/06 17:03:43;;;;;;;4.15;1.10;;;;;;;;;;4881665;29;20036;-75
2022/08/06 17:06:09;;;;;;;8.00;3.65;;;;;;;;;;4881620;29;20056;-80
2022/08/06 17:08:35;;;;;;;1.67;1.10;;;;;;;;;;4881775;29;20048;-75
2022/08/06 17:11:02;;;;;;;2.22;1.00;;;;;;;;;;4881430;29;20036;-73
2022/08/06 17:13:28;;;;;;;4.00;1.10;;;;;;;;;;4881762;29;20032;-74
2022/08/06 17:15:55;;;;;;;3.60;1.05;;;;;;;;;;4882178;29;20024;-90
2022/08/06 17:18:24;;;;;;;8.88;1.10;;;;;;;;;;4882206;29;20039;-79
2022/08/06 17:20:51;;;;;;;1.38;0.75;;;;;;;;;;4902076;29;20028;-83
2022/08/06 17:23:18;;;;;;;2.67;1.00;;;;;;;;;;4885083;29;20080;-85
2022/08/06 17:25:45;;;;;;;2.50;1.10;;;;;;;;;;5001423;23;20056;-73
2022/08/06 17:28:12;;;;;;;2.20;1.10;;;;;;;;;;4903820;29;20033;-73
2022/08/06 17:30:38;;;;;;;2.40;1.00;;;;;;;;;;4921131;29;20032;-85
2022/08/06 17:33:04;;;;;;;2.67;1.10;;;;;;;;;;4905084;29;20122;-73
2022/08/06 17:35:31;;;;;;;2.83;1.13;;;;;;;;;;4904070;29;20036;-82
2022/08/06 17:37:58;;;;;;;1.65;1.13;;;;;;;;;;4920778;29;20016;-76
2022/08/06 17:40:25;;;;;;;4.35;1.33;;;;;;;;;;4899942;29;20482;-82
2022/08/06 17:42:52;;;;;;;2.30;0.98;;;;;;;;;;4900439;29;20029;-73
2022/08/06 17:45:19;;;;;;;3.15;1.17;;;;;;;;;;4911942;29;20033;-85
2022/08/06 17:47:45;;;;;;;1.80;1.10;;;;;;;;;;4916216;29;20044;-74
2022/08/06 17:50:11;;;;;;;18.27;6.22;;;;;;;;;;4904581;29;20028;-74
2022/08/06 17:52:38;;;;;;;4.57;1.35;;;;;;;;;;4897455;29;20461;-71
2022/08/06 17:55:04;;;;;;;1.77;0.95;;;;;;;;;;4920283;29;20518;-73
2022/08/06 17:57:31;;;;;;;1.90;1.10;;;;;;;;;;4919342;29;20498;-73
2022/08/06 17:59:57;;;;;;;2.13;1.33;;;;;;;;;;4920329;29;20040;-74
2022/08/06 18:02:23;;;;;;;7.07;1.90;;;;;;;;;;4899309;29;20037;-72
2022/08/06 18:04:50;;;;;;;7.70;1.77;;;;;;;;;;4913455;29;20092;-74
2022/08/06 18:07:16;;;;;;;5.50;1.48;;;;;;;;;;4886961;29;20033;-75
2022/08/06 18:10:21;;;;;;;3.45;1.50;;;;;;;;;;4900984;29;20029;-73
2022/08/06 18:12:33;;;;;;;1.90;1.20;;;;;;;;;;4906801;29;20028;-71
2022/08/06 18:15:00;;;;;;;2.92;1.23;;;;;;;;;;4920678;29;20038;-85
2022/08/06 18:17:28;;;;;;;3.88;1.30;;;;;;;;;;4906928;29;20028;-83
2022/08/06 18:19:55;;;;;;;2.10;1.40;;;;;;;;;;4902870;29;20032;-75
2022/08/06 18:22:21;;;;;;;2.65;1.70;;;;;;;;;;4903027;29;20028;-74
2022/08/06 18:24:47;;;;;;;4.10;1.50;;;;;;;;;;4917956;29;20478;-77
2022/08/06 18:27:13;;;;;;;4.43;1.60;;;;;;;;;;4918640;29;20048;-79
2022/08/06 18:29:39;;;;;;;3.40;1.50;;;;;;;;;;4921333;29;20499;-83
2022/08/06 18:32:05;;;;;;;2.33;1.50;;;;;;;;;;4921147;29;20024;-79
2022/08/06 18:34:34;;;;;;;3.85;1.42;;;;;;;;;;4921529;29;20083;-75
2022/08/06 18:37:00;;;;;;;3.50;1.48;;;;;;;;;;4939354;29;20028;-83
2022/08/06 18:39:26;;;;;;;2.72;1.52;;;;;;;;;;4917059;29;20032;-80
2022/08/06 18:41:53;;;;;;;2.58;1.50;;;;;;;;;;4925896;29;20382;-82
2022/08/06 18:44:19;;;;;;;1.90;1.42;;;;;;;;;;4903695;29;20493;-77
2022/08/06 18:46:46;;;;;;;4.75;1.95;;;;;;;;;;4914254;29;20032;-79
2022/08/06 18:49:12;;;;;;;2.38;1.60;;;;;;;;;;4905575;29;20036;-85
2022/08/06 18:51:39;;;;;;;4.43;1.77;;;;;;;;;;4902362;29;20081;-76
2022/08/06 18:54:13;;;;;;;2.65;1.40;;;;;;;;;;4904736;29;20036;-81
2022/08/06 18:56:48;;;;;;;4.82;1.90;;;;;;;;;;4909211;29;20035;-83
2022/08/06 18:59:14;;;;;;;3.60;1.77;;;;;;;;;;4913540;29;20039;-79
2022/08/06 19:01:40;;;;;;;4.93;1.95;;;;;;;;;;4922182;29;20031;-72
2022/08/06 19:04:06;;;;;;;2.90;1.58;;;;;;;;;;4910865;29;20122;-69
2022/08/06 19:06:33;;;;;;;2.95;1.50;;;;;;;;;;4938003;29;20023;-82
2022/08/06 19:08:59;;;;;;;2.50;1.73;;;;;;;;;;4920855;29;20130;-72
2022/08/06 19:11:26;;;;;;;4.70;1.73;;;;;;;;;;4921291;29;20051;-76
2022/08/06 19:14:03;;;;;;;2.75;1.73;;;;;;;;;;4920851;29;20067;-73
2022/08/06 19:16:39;;;;;;;3.25;1.88;;;;;;;;;;4938352;29;20039;-74
2022/08/06 19:19:06;;;;;;;2.33;1.77;;;;;;;;;;4937788;29;20047;-74
2022/08/06 19:21:32;;;;;;;7.65;1.92;;;;;;;;;;4920958;29;20091;-74
2022/08/06 19:23:59;;;;;;;3.00;1.85;;;;;;;;;;4920969;29;20042;-73
2022/08/06 19:26:25;;;;;;;2.20;1.63;;;;;;;;;;4911712;29;20063;-77
2022/08/06 19:28:52;;;;;;;5.57;1.90;;;;;;;;;;4903209;29;20068;-74
2022/08/06 19:31:20;;;;;;;4.90;2.20;;;;;;;;;;4918757;29;20031;-74
2022/08/06 19:33:47;;;;;;;2.88;1.85;;;;;;;;;;4901723;29;20039;-75
2022/08/06 19:36:13;;;;;;;4.07;2.20;;;;;;;;;;4901757;29;20385;-74
2022/08/06 19:38:39;;;;;;;2.80;1.92;;;;;;;;;;4900608;29;20432;-75
2022/08/06 19:41:05;;;;;;;3.78;2.15;;;;;;;;;;4901359;29;20034;-72
2022/08/06 19:43:31;;;;;;;7.03;3.15;;;;;;;;;;4917537;29;20024;-75
2022/08/06 19:45:57;;;;;;;4.80;2.03;;;;;;;;;;4901255;29;20366;-75
2022/08/06 19:48:24;;;;;;;3.55;1.98;;;;;;;;;;4919096;29;20044;-75
2022/08/06 19:50:50;;;;;;;3.10;2.00;;;;;;;;;;4918145;29;20062;-73
2022/08/06 19:53:16;;;;;;;3.17;2.10;;;;;;;;;;4901249;29;20036;-72
2022/08/06 19:55:42;;;;;;;3.35;1.92;;;;;;;;;;4900954;29;20020;-75
2022/08/06 19:58:08;;;;;;;3.35;2.20;;;;;;;;;;4901090;29;20127;-74
2022/08/06 20:00:34;;;;;;;3.13;2.17;;;;;;;;;;4918120;29;20095;-75
2022/08/06 20:03:00;;;;;;;2.30;1.75;;;;;;;;;;4900904;29;20028;-74
2022/08/06 20:05:27;;;;;;;2.50;2.00;;;;;;;;;;4918124;29;20110;-76
2022/08/06 20:07:53;;;;;;;3.17;2.42;;;;;;;;;;4900773;29;20066;-74
2022/08/06 20:10:20;;;;;;;3.15;1.95;;;;;;;;;;4917600;29;20189;-74
2022/08/06 20:12:47;;;;;;;3.35;2.25;;;;;;;;;;4900839;29;20028;-74
2022/08/06 20:15:14;;;;;;;3.47;2.30;;;;;;;;;;4917891;29;20079;-75
2022/08/06 20:17:42;;;;;;;4.82;2.38;;;;;;;;;;4900727;29;20032;-76
2022/08/06 20:20:08;;;;;;;6.72;2.25;;;;;;;;;;4917632;29;20028;-78
2022/08/06 20:22:35;;;;;;;4.22;2.20;;;;;;;;;;4900786;29;20122;-74
2022/08/06 20:25:01;;;;;;;5.40;2.40;;;;;;;;;;4918048;29;20039;-74
2022/08/06 20:27:27;;;;;;;5.93;2.45;;;;;;;;;;4919348;29;20031;-75
2022/08/06 20:29:54;;;;;;;3.58;2.13;;;;;;;;;;4919508;29;20141;-76
2022/08/06 20:32:20;;;;;;;4.25;2.17;;;;;;;;;;4919690;29;20028;-75
2022/08/06 20:34:46;;;;;;;3.03;2.40;;;;;;;;;;4919472;29;20075;-76
2022/08/06 20:37:12;;;;;;;4.18;2.15;;;;;;;;;;4919421;29;20083;-74
2022/08/06 20:39:38;;;;;;;3.08;1.85;;;;;;;;;;4920171;29;20028;-74
2022/08/06 20:42:05;;;;;;;3.85;2.17;;;;;;;;;;4919367;29;20031;-74
2022/08/06 20:44:31;;;;;;;2.83;2.17;;;;;;;;;;4936272;29;20047;-73
2022/08/06 20:46:58;;;;;;;4.10;1.95;;;;;;;;;;4919238;29;20042;-73
2022/08/06 20:49:25;;;;;;;3.72;2.00;;;;;;;;;;4919741;29;20032;-74